sensor_id;sensor_type;location;lat;lon;timestamp;temperature;humidity
22416;DHT22;12204;50.600;4.608;2023-12-20T00:03:13;22.40;68.80
22416;DHT22;12204;50.600;4.608;2023-12-20T00:08:17;22.40;69.30
22416;DHT22;12204;50.600;4.608;2023-12-20T00:13:21;22.40;69.10
22416;DHT22;12204;50.600;4.608;2023-12-20T00:18:26;22.40;69.10
22416;DHT22;12204;50.600;4.608;2023-12-20T00:23:29;22.30;69.00
22416;DHT22;12204;50.600;4.608;2023-12-20T00:28:33;22.30;69.10
22416;DHT22;12204;50.600;4.608;2023-12-20T00:33:38;22.30;69.00
22416;DHT22;12204;50.600;4.608;2023-12-20T00:38:45;22.30;69.10
22416;DHT22;12204;50.600;4.608;2023-12-20T00:43:49;22.30;69.20
22416;DHT22;12204;50.600;4.608;2023-12-20T00:48:54;22.30;69.30
22416;DHT22;12204;50.600;4.608;2023-12-20T00:53:57;22.20;69.30
22416;DHT22;12204;50.600;4.608;2023-12-20T00:59:01;22.20;69.50
22416;DHT22;12204;50.600;4.608;2023-12-20T01:04:05;22.10;69.40
22416;DHT22;12204;50.600;4.608;2023-12-20T01:09:09;22.10;69.50
22416;DHT22;12204;50.600;4.608;2023-12-20T01:14:12;22.10;69.70
22416;DHT22;12204;50.600;4.608;2023-12-20T01:19:17;22.00;69.80
22416;DHT22;12204;50.600;4.608;2023-12-20T01:24:21;22.00;70.90
22416;DHT22;12204;50.600;4.608;2023-12-20T01:29:24;22.00;70.30
22416;DHT22;12204;50.600;4.608;2023-12-20T01:34:29;22.00;70.40
22416;DHT22;12204;50.600;4.608;2023-12-20T01:39:33;21.90;70.80
22416;DHT22;12204;50.600;4.608;2023-12-20T01:44:36;21.90;71.00
22416;DHT22;12204;50.600;4.608;2023-12-20T01:49:41;21.80;71.10
22416;DHT22;12204;50.600;4.608;2023-12-20T01:54:45;21.70;71.50
22416;DHT22;12204;50.600;4.608;2023-12-20T01:59:50;21.70;71.60
22416;DHT22;12204;50.600;4.608;2023-12-20T02:04:55;21.70;71.70
22416;DHT22;12204;50.600;4.608;2023-12-20T02:09:59;21.70;72.00
22416;DHT22;12204;50.600;4.608;2023-12-20T02:15:03;21.60;72.80
22416;DHT22;12204;50.600;4.608;2023-12-20T02:20:09;21.60;71.80
22416;DHT22;12204;50.600;4.608;2023-12-20T02:25:15;21.60;71.80
22416;DHT22;12204;50.600;4.608;2023-12-20T02:30:18;21.60;71.80
22416;DHT22;12204;50.600;4.608;2023-12-20T02:35:23;21.50;71.70
22416;DHT22;12204;50.600;4.608;2023-12-20T02:40:28;21.50;71.20
22416;DHT22;12204;50.600;4.608;2023-12-20T02:45:32;21.50;71.30
22416;DHT22;12204;50.600;4.608;2023-12-20T02:50:35;21.50;71.20
22416;DHT22;12204;50.600;4.608;2023-12-20T02:55:40;21.40;71.30
22416;DHT22;12204;50.600;4.608;2023-12-20T03:00:44;21.40;71.20
22416;DHT22;12204;50.600;4.608;2023-12-20T03:05:47;21.40;71.60
22416;DHT22;12204;50.600;4.608;2023-12-20T03:10:52;21.40;72.00
22416;DHT22;12204;50.600;4.608;2023-12-20T03:15:56;21.40;72.00
22416;DHT22;12204;50.600;4.608;2023-12-20T03:20:59;21.40;71.90
22416;DHT22;12204;50.600;4.608;2023-12-20T03:26:06;21.40;72.10
22416;DHT22;12204;50.600;4.608;2023-12-20T03:31:10;21.40;71.90
22416;DHT22;12204;50.600;4.608;2023-12-20T03:36:14;21.30;72.10
22416;DHT22;12204;50.600;4.608;2023-12-20T03:41:18;21.30;71.90
22416;DHT22;12204;50.600;4.608;2023-12-20T03:46:22;21.30;71.90
22416;DHT22;12204;50.600;4.608;2023-12-20T03:51:25;21.40;71.80
22416;DHT22;12204;50.600;4.608;2023-12-20T03:56:30;21.40;71.60
22416;DHT22;12204;50.600;4.608;2023-12-20T04:01:34;21.40;71.10
22416;DHT22;12204;50.600;4.608;2023-12-20T04:06:38;21.50;70.70
22416;DHT22;12204;50.600;4.608;2023-12-20T04:11:43;21.60;70.00
22416;DHT22;12204;50.600;4.608;2023-12-20T04:16:46;21.60;69.70
22416;DHT22;12204;50.600;4.608;2023-12-20T04:21:50;21.70;69.50
22416;DHT22;12204;50.600;4.608;2023-12-20T04:26:55;21.70;69.40
22416;DHT22;12204;50.600;4.608;2023-12-20T04:31:58;21.70;69.30
22416;DHT22;12204;50.600;4.608;2023-12-20T04:37:02;21.80;69.30
22416;DHT22;12204;50.600;4.608;2023-12-20T04:42:07;21.80;69.10
22416;DHT22;12204;50.600;4.608;2023-12-20T04:47:10;21.80;69.10
22416;DHT22;12204;50.600;4.608;2023-12-20T04:52:14;21.80;69.10
22416;DHT22;12204;50.600;4.608;2023-12-20T04:57:19;21.80;69.00
22416;DHT22;12204;50.600;4.608;2023-12-20T05:02:23;21.80;69.50
22416;DHT22;12204;50.600;4.608;2023-12-20T05:07:26;21.70;69.10
22416;DHT22;12204;50.600;4.608;2023-12-20T05:12:31;21.70;69.00
22416;DHT22;12204;50.600;4.608;2023-12-20T05:17:35;21.70;69.00
22416;DHT22;12204;50.600;4.608;2023-12-20T05:22:38;21.70;69.00
22416;DHT22;12204;50.600;4.608;2023-12-20T05:27:45;21.70;68.90
22416;DHT22;12204;50.600;4.608;2023-12-20T05:32:49;21.60;69.00
22416;DHT22;12204;50.600;4.608;2023-12-20T05:37:53;21.60;69.10
22416;DHT22;12204;50.600;4.608;2023-12-20T05:42:58;21.60;69.40
22416;DHT22;12204;50.600;4.608;2023-12-20T05:48:01;21.60;69.30
22416;DHT22;12204;50.600;4.608;2023-12-20T05:53:05;21.60;69.50
22416;DHT22;12204;50.600;4.608;2023-12-20T05:58:10;21.60;69.50
22416;DHT22;12204;50.600;4.608;2023-12-20T06:03:13;21.50;69.40
22416;DHT22;12204;50.600;4.608;2023-12-20T06:08:17;21.50;69.50
22416;DHT22;12204;50.600;4.608;2023-12-20T06:13:22;21.40;69.60
22416;DHT22;12204;50.600;4.608;2023-12-20T06:18:25;21.40;69.90
22416;DHT22;12204;50.600;4.608;2023-12-20T06:23:29;21.30;69.50
22416;DHT22;12204;50.600;4.608;2023-12-20T06:28:34;21.40;70.00
22416;DHT22;12204;50.600;4.608;2023-12-20T06:33:41;21.40;70.10
22416;DHT22;12204;50.600;4.608;2023-12-20T06:38:45;21.40;70.10
22416;DHT22;12204;50.600;4.608;2023-12-20T06:43:50;21.30;70.10
22416;DHT22;12204;50.600;4.608;2023-12-20T06:48:55;21.30;70.20
22416;DHT22;12204;50.600;4.608;2023-12-20T06:53:58;21.30;70.30
22416;DHT22;12204;50.600;4.608;2023-12-20T06:59:05;21.30;70.50
22416;DHT22;12204;50.600;4.608;2023-12-20T07:04:09;21.30;70.60
22416;DHT22;12204;50.600;4.608;2023-12-20T07:09:13;21.20;70.40
22416;DHT22;12204;50.600;4.608;2023-12-20T07:14:18;21.20;70.40
22416;DHT22;12204;50.600;4.608;2023-12-20T07:19:22;21.20;70.60
22416;DHT22;12204;50.600;4.608;2023-12-20T07:24:25;21.20;70.80
22416;DHT22;12204;50.600;4.608;2023-12-20T07:29:30;21.20;70.80
22416;DHT22;12204;50.600;4.608;2023-12-20T07:34:34;21.20;70.50
22416;DHT22;12204;50.600;4.608;2023-12-20T07:39:39;21.10;71.20
22416;DHT22;12204;50.600;4.608;2023-12-20T07:44:44;21.10;70.60
22416;DHT22;12204;50.600;4.608;2023-12-20T07:49:49;21.20;70.40
22416;DHT22;12204;50.600;4.608;2023-12-20T07:54:53;21.20;70.40
22416;DHT22;12204;50.600;4.608;2023-12-20T07:59:58;21.20;70.20
22416;DHT22;12204;50.600;4.608;2023-12-20T08:05:02;21.20;71.10
22416;DHT22;12204;50.600;4.608;2023-12-20T08:10:07;21.20;70.20
22416;DHT22;12204;50.600;4.608;2023-12-20T08:15:12;21.20;70.90
22416;DHT22;12204;50.600;4.608;2023-12-20T08:20:16;21.30;70.20
22416;DHT22;12204;50.600;4.608;2023-12-20T08:25:30;21.20;70.20
22416;DHT22;12204;50.600;4.608;2023-12-20T08:30:35;21.30;70.30
22416;DHT22;12204;50.600;4.608;2023-12-20T08:35:39;21.20;70.50
22416;DHT22;12204;50.600;4.608;2023-12-20T08:40:42;21.20;69.10
22416;DHT22;12204;50.600;4.608;2023-12-20T08:45:47;21.10;66.80
22416;DHT22;12204;50.600;4.608;2023-12-20T08:50:51;21.00;65.50
22416;DHT22;12204;50.600;4.608;2023-12-20T08:55:54;20.80;64.50
22416;DHT22;12204;50.600;4.608;2023-12-20T09:01:01;20.60;63.70
22416;DHT22;12204;50.600;4.608;2023-12-20T09:06:05;20.50;62.60
22416;DHT22;12204;50.600;4.608;2023-12-20T09:11:09;20.30;61.40
22416;DHT22;12204;50.600;4.608;2023-12-20T09:16:15;20.30;62.50
22416;DHT22;12204;50.600;4.608;2023-12-20T09:21:19;20.30;63.10
22416;DHT22;12204;50.600;4.608;2023-12-20T09:26:22;20.40;63.60
22416;DHT22;12204;50.600;4.608;2023-12-20T09:31:27;20.40;64.20
22416;DHT22;12204;50.600;4.608;2023-12-20T09:36:31;20.40;64.60
22416;DHT22;12204;50.600;4.608;2023-12-20T09:41:40;20.40;65.00
22416;DHT22;12204;50.600;4.608;2023-12-20T09:46:50;20.40;65.30
22416;DHT22;12204;50.600;4.608;2023-12-20T09:51:54;20.40;65.80
22416;DHT22;12204;50.600;4.608;2023-12-20T09:56:58;20.30;66.00
22416;DHT22;12204;50.600;4.608;2023-12-20T10:02:07;20.40;66.50
22416;DHT22;12204;50.600;4.608;2023-12-20T10:07:16;20.30;66.50
22416;DHT22;12204;50.600;4.608;2023-12-20T10:12:20;20.30;66.70
22416;DHT22;12204;50.600;4.608;2023-12-20T10:17:24;20.30;66.80
22416;DHT22;12204;50.600;4.608;2023-12-20T10:22:32;20.30;67.00
22416;DHT22;12204;50.600;4.608;2023-12-20T10:27:35;20.20;67.10
22416;DHT22;12204;50.600;4.608;2023-12-20T10:32:40;20.20;67.30
22416;DHT22;12204;50.600;4.608;2023-12-20T10:37:44;20.20;67.40
22416;DHT22;12204;50.600;4.608;2023-12-20T10:42:48;20.30;67.70
22416;DHT22;12204;50.600;4.608;2023-12-20T10:47:56;20.20;67.60
22416;DHT22;12204;50.600;4.608;2023-12-20T10:53:02;20.30;67.40
22416;DHT22;12204;50.600;4.608;2023-12-20T10:58:07;20.20;67.40
22416;DHT22;12204;50.600;4.608;2023-12-20T11:03:15;20.20;67.50
22416;DHT22;12204;50.600;4.608;2023-12-20T11:08:25;20.20;67.50
22416;DHT22;12204;50.600;4.608;2023-12-20T11:13:37;20.20;67.70
22416;DHT22;12204;50.600;4.608;2023-12-20T11:18:48;20.20;67.70
22416;DHT22;12204;50.600;4.608;2023-12-20T11:23:54;20.10;67.70
22416;DHT22;12204;50.600;4.608;2023-12-20T11:29:31;20.10;67.70
22416;DHT22;12204;50.600;4.608;2023-12-20T11:34:37;20.20;67.80
22416;DHT22;12204;50.600;4.608;2023-12-20T11:39:43;20.10;67.70
22416;DHT22;12204;50.600;4.608;2023-12-20T11:44:46;20.10;67.80
22416;DHT22;12204;50.600;4.608;2023-12-20T11:49:52;20.10;67.80
22416;DHT22;12204;50.600;4.608;2023-12-20T11:54:57;20.10;67.90
22416;DHT22;12204;50.600;4.608;2023-12-20T12:00:01;20.10;68.00
22416;DHT22;12204;50.600;4.608;2023-12-20T12:05:14;20.10;68.80
22416;DHT22;12204;50.600;4.608;2023-12-20T12:10:17;20.10;68.10
22416;DHT22;12204;50.600;4.608;2023-12-20T12:15:21;20.10;68.20
22416;DHT22;12204;50.600;4.608;2023-12-20T12:20:26;20.00;68.20
22416;DHT22;12204;50.600;4.608;2023-12-20T12:25:31;20.00;68.20
22416;DHT22;12204;50.600;4.608;2023-12-20T12:30:37;20.00;69.00
22416;DHT22;12204;50.600;4.608;2023-12-20T12:35:56;20.00;68.30
22416;DHT22;12204;50.600;4.608;2023-12-20T12:41:00;20.00;68.40
22416;DHT22;12204;50.600;4.608;2023-12-20T12:46:03;20.00;68.50
22416;DHT22;12204;50.600;4.608;2023-12-20T12:51:09;20.00;68.50
22416;DHT22;12204;50.600;4.608;2023-12-20T12:56:15;20.00;68.60
22416;DHT22;12204;50.600;4.608;2023-12-20T13:01:18;20.00;68.70
22416;DHT22;12204;50.600;4.608;2023-12-20T13:06:23;19.90;68.70
22416;DHT22;12204;50.600;4.608;2023-12-20T13:11:27;20.00;68.90
22416;DHT22;12204;50.600;4.608;2023-12-20T13:16:31;20.00;68.90
22416;DHT22;12204;50.600;4.608;2023-12-20T13:21:37;20.00;69.20
22416;DHT22;12204;50.600;4.608;2023-12-20T13:26:41;19.90;69.30
22416;DHT22;12204;50.600;4.608;2023-12-20T13:31:45;19.90;69.50
22416;DHT22;12204;50.600;4.608;2023-12-20T13:36:50;19.90;69.60
22416;DHT22;12204;50.600;4.608;2023-12-20T13:41:53;19.90;69.70
22416;DHT22;12204;50.600;4.608;2023-12-20T13:47:01;19.90;69.70
22416;DHT22;12204;50.600;4.608;2023-12-20T13:52:06;19.90;69.70
22416;DHT22;12204;50.600;4.608;2023-12-20T13:57:10;19.90;69.70
22416;DHT22;12204;50.600;4.608;2023-12-20T14:02:32;19.90;70.40
22416;DHT22;12204;50.600;4.608;2023-12-20T14:07:37;19.90;69.70
22416;DHT22;12204;50.600;4.608;2023-12-20T14:12:41;19.90;69.70
22416;DHT22;12204;50.600;4.608;2023-12-20T14:17:46;19.90;70.50
22416;DHT22;12204;50.600;4.608;2023-12-20T14:22:52;19.90;69.70
22416;DHT22;12204;50.600;4.608;2023-12-20T14:27:57;19.90;69.70
22416;DHT22;12204;50.600;4.608;2023-12-20T14:33:01;19.90;69.80
22416;DHT22;12204;50.600;4.608;2023-12-20T14:38:06;19.90;69.80
22416;DHT22;12204;50.600;4.608;2023-12-20T14:43:10;19.90;70.00
22416;DHT22;12204;50.600;4.608;2023-12-20T14:48:14;19.80;70.00
22416;DHT22;12204;50.600;4.608;2023-12-20T14:53:20;19.80;70.10
22416;DHT22;12204;50.600;4.608;2023-12-20T14:58:24;19.80;70.10
22416;DHT22;12204;50.600;4.608;2023-12-20T15:03:28;19.80;70.20
22416;DHT22;12204;50.600;4.608;2023-12-20T15:08:34;19.80;70.30
22416;DHT22;12204;50.600;4.608;2023-12-20T15:13:38;19.80;70.40
22416;DHT22;12204;50.600;4.608;2023-12-20T15:18:41;19.80;70.40
22416;DHT22;12204;50.600;4.608;2023-12-20T15:23:47;19.80;70.50
22416;DHT22;12204;50.600;4.608;2023-12-20T15:28:54;19.80;70.50
22416;DHT22;12204;50.600;4.608;2023-12-20T15:33:59;19.80;70.70
22416;DHT22;12204;50.600;4.608;2023-12-20T15:39:04;19.80;70.80
22416;DHT22;12204;50.600;4.608;2023-12-20T15:44:10;19.80;70.80
22416;DHT22;12204;50.600;4.608;2023-12-20T15:49:13;19.80;70.90
22416;DHT22;12204;50.600;4.608;2023-12-20T15:54:20;19.80;71.00
22416;DHT22;12204;50.600;4.608;2023-12-20T15:59:24;19.80;71.00
22416;DHT22;12204;50.600;4.608;2023-12-20T16:04:28;19.80;71.00
22416;DHT22;12204;50.600;4.608;2023-12-20T16:09:33;19.70;70.90
22416;DHT22;12204;50.600;4.608;2023-12-20T16:14:37;19.70;70.90
22416;DHT22;12204;50.600;4.608;2023-12-20T16:19:40;19.70;70.90
22416;DHT22;12204;50.600;4.608;2023-12-20T16:24:45;19.70;70.90
22416;DHT22;12204;50.600;4.608;2023-12-20T16:29:49;19.70;70.90
22416;DHT22;12204;50.600;4.608;2023-12-20T16:34:52;19.80;71.40
22416;DHT22;12204;50.600;4.608;2023-12-20T16:39:57;19.90;71.80
22416;DHT22;12204;50.600;4.608;2023-12-20T16:45:01;19.90;71.90
22416;DHT22;12204;50.600;4.608;2023-12-20T16:50:06;20.00;72.00
22416;DHT22;12204;50.600;4.608;2023-12-20T16:55:14;20.10;72.30
22416;DHT22;12204;50.600;4.608;2023-12-20T17:00:18;20.10;72.40
22416;DHT22;12204;50.600;4.608;2023-12-20T17:05:21;20.00;72.60
22416;DHT22;12204;50.600;4.608;2023-12-20T17:10:26;20.00;72.80
22416;DHT22;12204;50.600;4.608;2023-12-20T17:15:30;20.10;72.80
22416;DHT22;12204;50.600;4.608;2023-12-20T17:20:33;20.10;72.60
22416;DHT22;12204;50.600;4.608;2023-12-20T17:25:38;20.00;72.60
22416;DHT22;12204;50.600;4.608;2023-12-20T17:30:43;20.00;72.70
22416;DHT22;12204;50.600;4.608;2023-12-20T17:35:48;20.00;73.20
22416;DHT22;12204;50.600;4.608;2023-12-20T17:40:57;20.00;73.60
22416;DHT22;12204;50.600;4.608;2023-12-20T17:46:01;20.00;73.60
22416;DHT22;12204;50.600;4.608;2023-12-20T17:51:05;20.00;73.50
22416;DHT22;12204;50.600;4.608;2023-12-20T17:56:10;19.90;73.40
22416;DHT22;12204;50.600;4.608;2023-12-20T18:01:14;19.90;73.20
22416;DHT22;12204;50.600;4.608;2023-12-20T18:06:18;19.90;73.10
22416;DHT22;12204;50.600;4.608;2023-12-20T18:11:23;19.90;72.90
22416;DHT22;12204;50.600;4.608;2023-12-20T18:16:26;20.10;73.00
22416;DHT22;12204;50.600;4.608;2023-12-20T18:21:30;20.30;72.80
22416;DHT22;12204;50.600;4.608;2023-12-20T18:26:36;20.40;72.10
22416;DHT22;12204;50.600;4.608;2023-12-20T18:31:41;20.60;71.60
22416;DHT22;12204;50.600;4.608;2023-12-20T18:36:47;20.80;71.20
22416;DHT22;12204;50.600;4.608;2023-12-20T18:41:52;20.90;70.70
22416;DHT22;12204;50.600;4.608;2023-12-20T18:46:56;21.10;70.20
22416;DHT22;12204;50.600;4.608;2023-12-20T18:51:59;21.20;69.70
22416;DHT22;12204;50.600;4.608;2023-12-20T18:57:06;21.20;69.50
22416;DHT22;12204;50.600;4.608;2023-12-20T19:02:11;21.30;69.40
22416;DHT22;12204;50.600;4.608;2023-12-20T19:07:15;21.30;68.90
22416;DHT22;12204;50.600;4.608;2023-12-20T19:12:20;21.30;68.90
22416;DHT22;12204;50.600;4.608;2023-12-20T19:17:23;21.30;69.10
22416;DHT22;12204;50.600;4.608;2023-12-20T19:22:27;21.30;68.80
22416;DHT22;12204;50.600;4.608;2023-12-20T19:27:35;21.30;68.90
22416;DHT22;12204;50.600;4.608;2023-12-20T19:32:39;21.30;68.70
22416;DHT22;12204;50.600;4.608;2023-12-20T19:37:42;21.30;68.70
22416;DHT22;12204;50.600;4.608;2023-12-20T19:42:48;21.30;68.70
22416;DHT22;12204;50.600;4.608;2023-12-20T19:47:52;21.30;68.70
22416;DHT22;12204;50.600;4.608;2023-12-20T19:52:55;21.30;68.70
22416;DHT22;12204;50.600;4.608;2023-12-20T19:58:00;21.20;68.60
22416;DHT22;12204;50.600;4.608;2023-12-20T20:03:04;21.20;68.80
22416;DHT22;12204;50.600;4.608;2023-12-20T20:08:08;21.20;68.90
22416;DHT22;12204;50.600;4.608;2023-12-20T20:13:12;21.20;68.90
22416;DHT22;12204;50.600;4.608;2023-12-20T20:18:17;21.10;68.90
22416;DHT22;12204;50.600;4.608;2023-12-20T20:23:21;21.10;68.90
22416;DHT22;12204;50.600;4.608;2023-12-20T20:28:26;21.10;68.90
22416;DHT22;12204;50.600;4.608;2023-12-20T20:33:30;21.00;68.90
22416;DHT22;12204;50.600;4.608;2023-12-20T20:38:34;21.00;69.00
22416;DHT22;12204;50.600;4.608;2023-12-20T20:43:39;21.00;69.00
22416;DHT22;12204;50.600;4.608;2023-12-20T20:48:43;20.90;69.10
22416;DHT22;12204;50.600;4.608;2023-12-20T20:53:53;20.90;69.50
22416;DHT22;12204;50.600;4.608;2023-12-20T20:59:14;21.00;69.50
22416;DHT22;12204;50.600;4.608;2023-12-20T21:04:17;21.00;69.60
22416;DHT22;12204;50.600;4.608;2023-12-20T21:09:21;21.10;69.60
22416;DHT22;12204;50.600;4.608;2023-12-20T21:14:26;21.10;69.70
22416;DHT22;12204;50.600;4.608;2023-12-20T21:19:29;21.10;69.50
22416;DHT22;12204;50.600;4.608;2023-12-20T21:24:33;21.10;69.40
22416;DHT22;12204;50.600;4.608;2023-12-20T21:29:39;21.20;69.20
22416;DHT22;12204;50.600;4.608;2023-12-20T21:34:42;21.20;69.00
22416;DHT22;12204;50.600;4.608;2023-12-20T21:39:46;21.20;69.00
22416;DHT22;12204;50.600;4.608;2023-12-20T21:44:50;21.20;68.80
22416;DHT22;12204;50.600;4.608;2023-12-20T21:49:54;21.20;68.80
22416;DHT22;12204;50.600;4.608;2023-12-20T21:54:58;21.10;68.90
22416;DHT22;12204;50.600;4.608;2023-12-20T22:00:03;21.20;68.90
22416;DHT22;12204;50.600;4.608;2023-12-20T22:05:10;21.20;68.90
22416;DHT22;12204;50.600;4.608;2023-12-20T22:10:14;21.10;68.90
22416;DHT22;12204;50.600;4.608;2023-12-20T22:15:19;21.10;68.90
22416;DHT22;12204;50.600;4.608;2023-12-20T22:20:23;21.10;69.10
22416;DHT22;12204;50.600;4.608;2023-12-20T22:25:27;21.10;69.20
22416;DHT22;12204;50.600;4.608;2023-12-20T22:30:32;21.10;70.40
22416;DHT22;12204;50.600;4.608;2023-12-20T22:35:35;21.10;70.00
22416;DHT22;12204;50.600;4.608;2023-12-20T22:40:39;21.20;72.90
22416;DHT22;12204;50.600;4.608;2023-12-20T22:45:43;21.40;73.10
22416;DHT22;12204;50.600;4.608;2023-12-20T22:50:47;21.50;72.60
22416;DHT22;12204;50.600;4.608;2023-12-20T22:55:50;21.60;72.70
22416;DHT22;12204;50.600;4.608;2023-12-20T23:00:55;21.60;72.70
22416;DHT22;12204;50.600;4.608;2023-12-20T23:05:59;21.70;72.30
22416;DHT22;12204;50.600;4.608;2023-12-20T23:11:03;21.80;72.00
22416;DHT22;12204;50.600;4.608;2023-12-20T23:16:08;21.80;71.80
22416;DHT22;12204;50.600;4.608;2023-12-20T23:21:13;21.80;71.80
22416;DHT22;12204;50.600;4.608;2023-12-20T23:26:17;21.90;71.70
22416;DHT22;12204;50.600;4.608;2023-12-20T23:31:24;21.90;71.40
22416;DHT22;12204;50.600;4.608;2023-12-20T23:36:28;21.90;71.50
22416;DHT22;12204;50.600;4.608;2023-12-20T23:41:31;21.90;71.40
22416;DHT22;12204;50.600;4.608;2023-12-20T23:46:36;22.00;71.20
22416;DHT22;12204;50.600;4.608;2023-12-20T23:51:40;22.00;71.20
22416;DHT22;12204;50.600;4.608;2023-12-20T23:56:46;21.90;70.90
